Billinghay, United Kingdom
Current Conditions -  °F | °C
As of 7:50 AM on Sunday 23 Nov 2014 (Local Time) from EGXC Reporting Station
Light Rain Light Rain  
Wind Chill:   Ceiling: 5000
Heat Index:   Visibility: 4mi
Dew Point:   Wind: 15mph
Humidity: 93%   Direction: 320°NW
Pressure: 29.97"   Gusts: NA
Location:  53.08°N, 0.28°W
Report Text: EGXC 230750Z 32013KT 7000 -RA FEW018 OVC050 08/07 Q1015 WHT
Loading
Personal Weather Stations






























Interactive Weather Map New forecast layout! Learn more

10-Day Weather Forecast

Advertisements
Track Severe Weather on mobile